Time;durP1;ratioP1;P1;durP2;ratioP2;P2;SDS_P1;SDS_P2;PMS_P1;PMS_P2;Temp;Humidity;BMP_temperature;BMP_pressure;BME280_temperature;BME280_humidity;BME280_pressure;Samples;Min_cycle;Max_cycle;Signal;HPM_P1;HPM_P2
2023/04/15 00:01:25;;;;;;;;;1.00;1.00;;;;;22.82;38.77;100295.56;5076230;28;45360;-79
2023/04/15 00:03:53;;;;;;;;;1.00;1.00;;;;;22.97;38.62;100318.47;5076146;28;45371;-79
2023/04/15 00:06:19;;;;;;;;;0.00;0.00;;;;;22.93;39.01;100318.06;5076218;28;45482;-79
2023/04/15 00:08:45;;;;;;;;;0.00;0.00;;;;;22.88;38.99;100306.41;5075668;28;47246;-79
2023/04/15 00:11:11;;;;;;;;;1.00;1.00;;;;;22.91;38.66;100314.78;5075975;28;45371;-79
2023/04/15 00:13:37;;;;;;;;;1.00;1.00;;;;;22.85;38.69;100310.25;5057806;28;45480;-79
2023/04/15 00:16:02;;;;;;;;;1.33;1.00;;;;;22.91;38.25;100320.09;5076091;28;45431;-79
2023/04/15 00:18:28;;;;;;;;;3.00;0.33;;;;;22.79;38.41;100308.44;5075410;28;47244;-79
2023/04/15 00:20:54;;;;;;;;;1.00;1.00;;;;;22.88;38.56;100327.63;5075978;28;45399;-78
2023/04/15 00:23:19;;;;;;;;;2.33;1.33;;;;;22.63;38.12;100289.97;5075978;28;45331;-80
2023/04/15 00:25:45;;;;;;;;;1.33;1.33;;;;;22.82;38.33;100319.44;5075758;28;45469;-80
2023/04/15 00:28:10;;;;;;;;;2.33;1.67;;;;;22.82;38.91;100331.91;5075714;28;46312;-79
2023/04/15 00:30:36;;;;;;;;;2.00;1.00;;;;;22.82;38.33;100337.22;5075699;28;45481;-79
2023/04/15 00:33:02;;;;;;;;;1.00;1.00;;;;;22.74;38.80;100339.00;5075389;28;45372;-79
2023/04/15 00:35:27;;;;;;;;;1.00;1.00;;;;;22.55;38.44;100308.72;5078281;28;45461;-80
2023/04/15 00:37:53;;;;;;;;;1.00;1.00;;;;;22.62;38.38;100325.47;5078952;27;46125;-80
2023/04/15 00:40:20;;;;;;;;;1.00;1.00;;;;;22.71;38.42;100343.88;5077979;28;45412;-79
2023/04/15 00:42:46;;;;;;;;;1.00;1.00;;;;;22.73;38.74;100355.13;5079380;28;45348;-79
2023/04/15 00:45:11;;;;;;;;;1.00;1.00;;;;;22.73;38.20;100358.59;5079115;28;45503;-79
2023/04/15 00:47:40;;;;;;;;;2.00;2.00;;;;;22.66;38.31;100333.03;5077435;28;47012;-79
2023/04/15 00:50:06;;;;;;;;;1.00;1.00;;;;;22.67;38.19;100332.81;5078916;28;45289;-78
2023/04/15 00:52:31;;;;;;;;;0.00;0.00;;;;;22.72;38.29;100348.97;5079164;28;45346;-79
2023/04/15 00:54:57;;;;;;;;;1.33;1.00;;;;;22.71;37.86;100350.03;5078989;28;45417;-78
2023/04/15 00:57:22;;;;;;;;;1.00;1.00;;;;;22.71;38.11;100354.50;5078809;28;46779;-80
2023/04/15 00:59:48;;;;;;;;;3.00;1.00;;;;;22.46;38.37;100313.34;5079121;28;45286;-79
2023/04/15 01:02:14;;;;;;;;;1.00;1.00;;;;;22.59;38.04;100339.09;5078728;28;45297;-79
2023/04/15 01:04:39;;;;;;;;;0.00;0.00;;;;;22.69;38.11;100357.28;5079109;28;45281;-79
2023/04/15 01:07:04;;;;;;;;;0.00;0.00;;;;;22.34;37.61;100301.66;5078747;28;46352;-79
2023/04/15 01:09:32;;;;;;;;;1.33;1.33;;;;;22.63;37.52;100345.66;5078644;28;45315;-79
2023/04/15 01:11:57;;;;;;;;;0.00;0.00;;;;;22.38;37.70;100309.03;5079005;28;45386;-78
2023/04/15 01:14:22;;;;;;;;;1.67;1.00;;;;;22.62;37.82;100362.56;5078651;28;45487;-79
2023/04/15 01:16:48;;;;;;;;;2.00;1.00;;;;;22.56;37.91;100344.78;5078303;28;45466;-79
2023/04/15 01:19:16;;;;;;;;;1.00;1.00;;;;;22.68;38.10;100357.50;5078636;28;45418;-79
2023/04/15 01:21:42;;;;;;;;;0.67;0.67;;;;;22.66;38.31;100360.38;5078626;28;45461;-79
2023/04/15 01:24:09;;;;;;;;;1.00;1.00;;;;;22.60;38.08;100348.69;5078542;28;45389;-79
2023/04/15 01:26:37;;;;;;;;;0.00;0.00;;;;;22.60;37.95;100345.22;5060191;28;48110;-79
2023/04/15 01:29:02;;;;;;;;;0.00;0.00;;;;;22.65;37.86;100361.38;5078573;28;45435;-79
2023/04/15 01:31:28;;;;;;;;;1.00;1.00;;;;;22.52;38.16;100340.91;5078196;28;45335;-78
2023/04/15 01:33:53;;;;;;;;;1.00;1.00;;;;;22.62;37.67;100356.44;5078465;28;45308;-79
2023/04/15 01:36:18;;;;;;;;;0.33;0.33;;;;;22.37;37.89;100322.47;5078450;28;45957;-79
2023/04/15 01:38:44;;;;;;;;;1.00;0.00;;;;;22.47;37.84;100345.97;5078083;28;45399;-78
2023/04/15 01:41:10;;;;;;;;;1.00;1.00;;;;;22.46;37.95;100341.69;5078496;28;45430;-79
2023/04/15 01:43:36;;;;;;;;;0.00;0.00;;;;;22.49;38.04;100343.94;5078343;28;45488;-78
2023/04/15 01:46:01;;;;;;;;;1.00;1.00;;;;;22.44;37.83;100341.88;5077720;28;45433;-79
2023/04/15 01:48:27;;;;;;;;;1.00;1.00;;;;;22.36;37.92;100328.78;5078012;28;45395;-79
2023/04/15 01:50:54;;;;;;;;;0.00;0.00;;;;;22.57;37.97;100370.31;5078417;28;45350;-79
2023/04/15 01:53:19;;;;;;;;;2.00;1.00;;;;;22.57;38.24;100372.94;5078445;28;45325;-79
2023/04/15 01:55:45;;;;;;;;;0.33;0.33;;;;;22.48;37.60;100358.22;5077968;28;45341;-79
2023/04/15 01:58:10;;;;;;;;;1.00;1.00;;;;;22.16;37.98;100316.25;5059817;28;45315;-79
2023/04/15 02:00:35;;;;;;;;;0.67;0.00;;;;;22.55;38.06;100369.69;5077794;28;45383;-79
2023/04/15 02:03:01;;;;;;;;;1.67;1.00;;;;;22.39;37.58;100358.38;5078166;28;45541;-79
2023/04/15 02:05:26;;;;;;;;;1.00;1.00;;;;;22.54;38.36;100383.94;5077796;28;46199;-79
2023/04/15 02:07:52;;;;;;;;;0.00;0.00;;;;;22.46;38.00;100373.47;5078078;28;45494;-79
2023/04/15 02:10:18;;;;;;;;;0.00;0.00;;;;;22.41;37.88;100368.78;5078123;28;45498;-79
2023/04/15 02:12:43;;;;;;;;;1.00;1.00;;;;;22.50;37.57;100390.66;5077893;28;45404;-79
2023/04/15 02:15:09;;;;;;;;;1.00;0.00;;;;;22.37;37.67;100365.72;5077415;28;47046;-79
2023/04/15 02:17:36;;;;;;;;;0.33;0.00;;;;;22.53;37.41;100403.53;5077723;28;45770;-79
2023/04/15 02:20:04;;;;;;;;;0.00;0.00;;;;;22.44;38.05;100389.59;5077800;28;45309;-78
2023/04/15 02:22:30;;;;;;;;;0.67;0.67;;;;;22.36;37.63;100376.47;5077670;28;45379;-78
2023/04/15 02:24:55;;;;;;;;;1.33;1.33;;;;;22.39;37.86;100403.44;5077607;28;46179;-79
2023/04/15 02:27:21;;;;;;;;;0.67;0.67;;;;;22.37;37.95;100400.16;5077731;28;45453;-79
2023/04/15 02:29:46;;;;;;;;;1.00;1.00;;;;;22.38;37.40;100417.69;5077368;28;45440;-79
2023/04/15 02:32:12;;;;;;;;;0.00;0.00;;;;;22.54;37.39;100444.09;5077543;28;45554;-78
2023/04/15 02:34:41;;;;;;;;;0.00;0.00;;;;;22.49;37.74;100439.38;5077481;28;46069;-78
2023/04/15 02:37:10;;;;;;;;;0.00;0.00;;;;;22.47;37.57;100452.00;5077240;28;45395;-78
2023/04/15 02:39:36;;;;;;;;;0.00;0.00;;;;;22.36;37.52;100432.97;5077606;28;45623;-78
2023/04/15 02:42:02;;;;;;;;;1.00;1.00;;;;;22.52;37.67;100466.34;5077420;28;45460;-79
2023/04/15 02:44:27;;;;;;;;;0.00;0.00;;;;;22.53;37.61;100477.75;5076834;27;47208;-79
2023/04/15 02:46:53;;;;;;;;;0.33;0.33;;;;;22.42;37.47;100467.66;5077434;28;45407;-79
2023/04/15 02:49:22;;;;;;;;;0.00;0.00;;;;;22.53;37.77;100493.66;5077367;28;45917;-79
2023/04/15 02:51:48;;;;;;;;;0.00;0.00;;;;;22.52;37.93;100489.38;5077460;28;45304;-79
2023/04/15 02:54:18;;;;;;;;;1.00;0.00;;;;;22.51;37.96;100498.31;5077055;28;46232;-79
2023/04/15 02:56:44;;;;;;;;;0.00;0.00;;;;;22.45;37.29;100496.44;5076464;28;45448;-79
2023/04/15 02:59:09;;;;;;;;;0.33;0.33;;;;;22.42;37.67;100494.19;5076842;28;45231;-79
2023/04/15 03:01:34;;;;;;;;;0.00;0.00;;;;;22.50;37.43;100518.72;5077109;28;45320;-79
2023/04/15 03:04:00;;;;;;;;;0.00;0.00;;;;;22.47;37.50;100518.28;5076980;28;46303;-78
2023/04/15 03:06:25;;;;;;;;;0.00;0.00;;;;;22.48;37.30;100525.25;5076639;28;49567;-79
2023/04/15 03:08:51;;;;;;;;;0.00;0.00;;;;;22.47;37.84;100527.06;5077029;28;45404;-79
2023/04/15 03:11:17;;;;;;;;;0.00;0.00;;;;;22.47;37.42;100527.06;5077214;28;45310;-79
2023/04/15 03:13:42;;;;;;;;;0.00;0.00;;;;;22.28;37.37;100502.00;5076386;28;47230;-79
2023/04/15 03:16:08;;;;;;;;;0.00;0.00;;;;;22.28;38.00;100510.78;5076862;28;45191;-79
2023/04/15 03:18:34;;;;;;;;;0.00;0.00;;;;;22.48;37.37;100543.78;5077071;28;45561;-78
2023/04/15 03:20:59;;;;;;;;;0.00;0.00;;;;;22.44;37.43;100553.94;5076757;28;45435;-79
2023/04/15 03:23:25;;;;;;;;;0.00;0.00;;;;;22.22;37.56;100505.44;5076703;28;45379;-79
2023/04/15 03:25:50;;;;;;;;;0.00;0.00;;;;;22.46;37.49;100551.91;5076717;28;45343;-79
2023/04/15 03:28:15;;;;;;;;;0.00;0.00;;;;;22.36;37.78;100546.13;5076356;28;45292;-79
2023/04/15 03:30:41;;;;;;;;;0.00;0.00;;;;;22.29;37.71;100535.47;5076740;28;45402;-79
2023/04/15 03:33:07;;;;;;;;;0.00;0.00;;;;;22.46;37.78;100561.69;5076193;28;46407;-78
2023/04/15 03:35:33;;;;;;;;;1.00;0.33;;;;;22.38;37.63;100565.28;5076427;28;45603;-79
2023/04/15 03:37:58;;;;;;;;;0.00;0.00;;;;;22.34;37.35;100564.88;5076541;28;45467;-79
2023/04/15 03:40:23;;;;;;;;;1.00;0.00;;;;;22.45;37.63;100598.00;5076647;28;45517;-78
2023/04/15 03:42:49;;;;;;;;;0.00;0.00;;;;;22.36;37.37;100575.28;5076055;28;46951;-79
2023/04/15 03:45:14;;;;;;;;;0.00;0.00;;;;;22.13;37.42;100550.59;5076406;28;45344;-78
2023/04/15 03:47:40;;;;;;;;;0.00;0.00;;;;;22.37;37.20;100593.66;5058249;28;45382;-79
2023/04/15 03:50:06;;;;;;;;;1.00;1.00;;;;;22.30;37.67;100579.53;5076337;28;45528;-78
2023/04/15 03:52:31;;;;;;;;;1.00;1.00;;;;;22.44;37.58;100606.97;5076174;28;47014;-78
2023/04/15 03:54:56;;;;;;;;;0.00;0.00;;;;;22.44;37.10;100609.63;5074922;28;45434;-78
2023/04/15 03:57:22;;;;;;;;;0.67;0.00;;;;;22.44;37.64;100617.56;5076028;28;45329;-78
2023/04/15 03:59:47;;;;;;;;;0.00;0.00;;;;;22.16;37.69;100579.38;5076342;28;45445;-78
2023/04/15 04:02:12;;;;;;;;;0.00;0.00;;;;;22.44;37.13;100620.22;5076129;28;46184;-78
2023/04/15 04:04:38;;;;;;;;;0.00;0.00;;;;;22.32;37.47;100611.94;5076127;28;45391;-78
2023/04/15 04:07:03;;;;;;;;;0.00;0.00;;;;;22.17;37.10;100583.66;5076030;28;45360;-78
2023/04/15 04:09:28;;;;;;;;;1.00;0.00;;;;;22.36;37.10;100620.34;5074960;28;45368;-79
2023/04/15 04:11:55;;;;;;;;;1.00;1.00;;;;;22.28;37.16;100615.97;5075708;28;47278;-79
2023/04/15 04:14:25;;;;;;;;;0.00;0.00;;;;;22.45;37.07;100650.22;5076008;28;45390;-78
2023/04/15 04:16:50;;;;;;;;;0.00;0.00;;;;;22.03;37.09;100579.22;5076017;28;45292;-78
2023/04/15 04:19:18;;;;;;;;;0.00;0.00;;;;;22.38;37.12;100643.00;5057745;28;45396;-77
2023/04/15 04:21:43;;;;;;;;;0.00;0.00;;;;;22.44;37.40;100652.03;5075953;28;46092;-78
2023/04/15 04:24:09;;;;;;;;;0.00;0.00;;;;;22.39;37.56;100651.78;5075849;28;45408;-79
2023/04/15 04:26:34;;;;;;;;;0.00;0.00;;;;;22.34;37.11;100660.28;5075586;28;45324;-78
2023/04/15 04:28:59;;;;;;;;;0.00;0.00;;;;;22.34;37.64;100659.47;5076053;28;45396;-78
2023/04/15 04:31:26;;;;;;;;;0.00;0.00;;;;;22.43;37.04;100679.53;5075564;28;45460;-79
2023/04/15 04:33:51;;;;;;;;;0.00;0.00;;;;;22.39;36.95;100683.56;5075723;28;45519;-79
2023/04/15 04:36:16;;;;;;;;;0.00;0.00;;;;;22.44;37.31;100696.25;5075807;28;45447;-79
2023/04/15 04:38:41;;;;;;;;;1.00;0.00;;;;;22.39;37.24;100696.84;5075247;27;48052;-78
2023/04/15 04:41:07;;;;;;;;;0.00;0.00;;;;;22.38;37.44;100703.97;5075335;28;46182;-78
2023/04/15 04:43:34;;;;;;;;;0.00;0.00;;;;;22.43;37.48;100716.66;5075513;28;45411;-79
2023/04/15 04:45:59;;;;;;;;;0.00;0.00;;;;;22.33;37.08;100710.84;5075700;28;45410;-78
2023/04/15 04:48:25;;;;;;;;;0.00;0.00;;;;;22.42;37.35;100724.78;5075098;28;50221;-77
2023/04/15 04:50:50;;;;;;;;;0.00;0.00;;;;;22.13;37.23;100692.84;5075452;28;46242;-78
2023/04/15 04:53:16;;;;;;;;;0.00;0.00;;;;;22.37;37.03;100733.31;5075496;28;45362;-78
2023/04/15 04:55:42;;;;;;;;;0.00;0.00;;;;;22.37;37.59;100742.09;5075304;28;45403;-78
2023/04/15 04:58:07;;;;;;;;;0.67;0.00;;;;;22.18;37.23;100717.81;5075309;28;45370;-78
2023/04/15 05:00:33;;;;;;;;;0.00;0.00;;;;;22.10;37.13;100719.72;5075446;28;46245;-78
2023/04/15 05:02:58;;;;;;;;;0.00;0.00;;;;;22.38;37.42;100772.03;5075456;28;46032;-79
2023/04/15 05:05:23;;;;;;;;;1.00;0.00;;;;;22.39;37.51;100779.00;5075366;28;45286;-79
2023/04/15 05:07:49;;;;;;;;;0.00;0.00;;;;;22.38;37.34;100794.09;5075485;28;45383;-78
2023/04/15 05:10:16;;;;;;;;;0.00;0.00;;;;;22.26;37.17;100787.59;5074748;28;46492;-79
2023/04/15 05:12:41;;;;;;;;;0.00;0.00;;;;;22.22;36.95;100778.38;5075314;28;45433;-78
2023/04/15 05:15:07;;;;;;;;;1.00;0.00;;;;;22.33;37.57;100804.41;5075394;28;45415;-78
2023/04/15 05:17:34;;;;;;;;;0.00;0.00;;;;;22.29;37.37;100805.78;5075312;28;45722;-78
2023/04/15 05:19:59;;;;;;;;;0.00;0.00;;;;;22.16;37.56;100788.72;5075187;28;46420;-79
2023/04/15 05:22:25;;;;;;;;;0.00;0.00;;;;;22.25;37.49;100804.53;5078457;28;45364;-78
2023/04/15 05:24:50;;;;;;;;;0.00;0.00;;;;;22.35;37.28;100828.91;5078334;28;45285;-79
2023/04/15 05:27:16;;;;;;;;;0.00;0.00;;;;;22.26;37.30;100814.94;5078384;28;50269;-78
2023/04/15 05:29:41;;;;;;;;;0.00;0.00;;;;;22.22;37.34;100813.66;5078549;28;45384;-78
2023/04/15 05:32:06;;;;;;;;;0.33;0.33;;;;;22.29;37.21;100834.94;5078399;28;45290;-78
2023/04/15 05:34:32;;;;;;;;;0.00;0.00;;;;;22.25;37.00;100826.53;5078693;28;45619;-78
2023/04/15 05:36:57;;;;;;;;;0.00;0.00;;;;;22.34;36.83;100840.53;5078085;27;48805;-79
2023/04/15 05:39:22;;;;;;;;;2.00;0.00;;;;;22.37;37.24;100856.06;5078044;28;45304;-79
2023/04/15 05:41:48;;;;;;;;;0.00;0.00;;;;;22.38;36.73;100860.34;5078171;28;48545;-78
2023/04/15 05:44:13;;;;;;;;;0.00;0.00;;;;;22.39;37.24;100855.88;5078490;28;45295;-78
2023/04/15 05:46:39;;;;;;;;;1.00;0.00;;;;;22.34;37.38;100860.91;5078434;28;45555;-79
2023/04/15 05:49:04;;;;;;;;;0.00;0.00;;;;;22.39;36.92;100872.63;5077867;28;46318;-78
2023/04/15 05:51:30;;;;;;;;;0.00;0.00;;;;;22.37;36.88;100865.84;5078325;28;45469;-79
2023/04/15 05:53:55;;;;;;;;;0.00;0.00;;;;;22.29;36.95;100874.72;5078094;28;45311;-79
2023/04/15 05:56:21;;;;;;;;;0.00;0.00;;;;;22.38;37.25;100894.81;5078078;28;45484;-79
2023/04/15 05:58:46;;;;;;;;;0.00;0.00;;;;;22.38;37.13;100897.47;5077896;28;46847;-79
2023/04/15 06:01:11;;;;;;;;;0.00;0.00;;;;;22.38;36.96;100912.53;5078042;28;45440;-79
2023/04/15 06:03:37;;;;;;;;;0.00;0.00;;;;;22.37;36.91;100911.75;5078068;28;45419;-78
2023/04/15 06:06:03;;;;;;;;;1.00;0.00;;;;;22.37;36.76;100919.69;5078014;28;45471;-79
2023/04/15 06:08:28;;;;;;;;;0.00;0.00;;;;;22.33;37.37;100918.38;5077541;28;45847;-78
2023/04/15 06:10:54;;;;;;;;;0.00;0.00;;;;;22.19;36.92;100901.47;5078016;28;45508;-79
2023/04/15 06:13:19;;;;;;;;;0.00;0.00;;;;;22.35;36.70;100928.81;5078179;28;45416;-79
2023/04/15 06:15:44;;;;;;;;;0.00;0.00;;;;;22.29;36.69;100920.59;5078073;28;45463;-79
2023/04/15 06:18:10;;;;;;;;;0.00;0.00;;;;;22.26;36.97;100930.72;5077817;28;46107;-78
2023/04/15 06:20:36;;;;;;;;;0.67;0.00;;;;;22.32;37.23;100945.91;5077588;28;45431;-78
2023/04/15 06:23:01;;;;;;;;;0.00;0.00;;;;;22.24;36.99;100941.50;5077468;28;45365;-79
2023/04/15 06:25:27;;;;;;;;;0.00;0.00;;;;;22.22;36.68;100940.88;5077878;28;45383;-79
2023/04/15 06:27:52;;;;;;;;;0.67;0.67;;;;;22.34;37.16;100948.38;5077332;28;46630;-79
2023/04/15 06:30:17;;;;;;;;;2.00;0.00;;;;;22.34;37.16;100966.94;5077643;28;45393;-79
2023/04/15 06:32:43;;;;;;;;;0.00;0.00;;;;;22.26;36.95;100960.69;5076562;27;45180;-79
2023/04/15 06:35:08;;;;;;;;;0.00;0.00;;;;;22.32;36.55;100969.78;5077626;28;45397;-79
2023/04/15 06:37:34;;;;;;;;;0.00;0.00;;;;;22.22;36.95;100963.91;5076872;28;45400;-79
2023/04/15 06:40:00;;;;;;;;;0.00;0.00;;;;;22.32;36.81;100988.31;5077374;28;45302;-79
2023/04/15 06:42:25;;;;;;;;;0.00;0.00;;;;;22.31;37.05;100991.97;5077503;28;45343;-78
2023/04/15 06:44:50;;;;;;;;;0.00;0.00;;;;;22.17;36.90;100975.84;5077475;28;45259;-78
2023/04/15 06:47:16;;;;;;;;;0.00;0.00;;;;;22.30;36.65;101003.59;5077174;28;45975;-78
2023/04/15 06:49:42;;;;;;;;;2.33;0.00;;;;;22.22;37.03;100985.09;5077121;28;45385;-79
2023/04/15 06:52:07;;;;;;;;;0.00;0.00;;;;;22.29;36.94;101005.41;5077010;28;45238;-79
2023/04/15 06:54:33;;;;;;;;;0.00;0.00;;;;;22.27;36.72;100998.63;5077201;28;45634;-79
2023/04/15 06:56:59;;;;;;;;;1.00;0.00;;;;;22.26;36.48;101008.41;5077151;28;46192;-80
2023/04/15 06:59:26;;;;;;;;;0.00;0.00;;;;;22.28;36.43;101021.47;5076943;28;45291;-77
2023/04/15 07:01:51;;;;;;;;;1.00;0.00;;;;;22.08;36.75;100982.22;5077198;28;45355;-79
2023/04/15 07:04:16;;;;;;;;;0.00;0.00;;;;;22.33;36.85;101027.06;5076834;28;45375;-79
2023/04/15 07:06:42;;;;;;;;;0.00;0.00;;;;;22.33;36.47;101021.75;5076394;28;46187;-79
2023/04/15 07:09:07;;;;;;;;;0.00;0.00;;;;;22.31;37.20;101029.06;5076994;28;45470;-80
2023/04/15 07:11:33;;;;;;;;;0.00;0.00;;;;;22.21;36.59;101013.41;5077041;28;45335;-79
2023/04/15 07:13:58;;;;;;;;;0.00;0.00;;;;;22.34;36.50;101041.97;5077132;28;45252;-79
2023/04/15 07:16:23;;;;;;;;;1.00;0.00;;;;;22.11;37.10;101018.13;5076775;28;47198;-79
2023/04/15 07:18:49;;;;;;;;;0.33;0.00;;;;;22.35;36.77;101056.06;5076827;28;45289;-79
2023/04/15 07:21:14;;;;;;;;;0.00;0.00;;;;;22.26;36.73;101044.69;5076697;28;45398;-79
2023/04/15 07:23:41;;;;;;;;;0.00;0.00;;;;;22.33;36.99;101061.53;5076819;27;45375;-78
2023/04/15 07:26:07;;;;;;;;;0.00;0.00;;;;;21.35;37.09;100909.16;5076665;28;45449;-78
2023/04/15 07:28:32;;;;;;;;;0.00;0.00;;;;;22.16;36.71;101045.75;5076604;28;45533;-78
2023/04/15 07:30:57;;;;;;;;;0.00;0.00;;;;;22.20;36.63;101050.72;5076810;28;45366;-78
2023/04/15 07:33:23;;;;;;;;;0.00;0.00;;;;;22.06;36.73;101038.03;5076376;28;45346;-79
2023/04/15 07:35:48;;;;;;;;;0.00;0.00;;;;;22.24;37.17;101067.91;5076580;28;45333;-79
2023/04/15 07:38:14;;;;;;;;;0.00;0.00;;;;;22.32;36.64;101085.56;5076317;28;45293;-78
2023/04/15 07:40:39;;;;;;;;;0.00;0.00;;;;;22.31;36.82;101090.03;5076737;28;45402;-79
2023/04/15 07:43:05;;;;;;;;;0.00;0.00;;;;;22.09;36.80;101063.38;5076254;28;45335;-79
2023/04/15 07:45:31;;;;;;;;;0.00;0.00;;;;;22.21;36.54;101084.16;5076381;28;45670;-79
2023/04/15 07:47:56;;;;;;;;;0.00;0.00;;;;;22.29;36.54;101106.13;5076250;28;45307;-79
2023/04/15 07:50:23;;;;;;;;;0.00;0.00;;;;;22.30;36.61;101109.63;5076384;28;45355;-79
2023/04/15 07:52:50;;;;;;;;;2.00;0.33;;;;;22.29;36.88;101114.09;5076330;28;45479;-79
2023/04/15 07:55:18;;;;;;;;;0.33;0.00;;;;;22.29;36.47;101116.72;5076056;28;47093;-78
2023/04/15 07:57:43;;;;;;;;;1.00;0.00;;;;;22.23;37.04;101117.44;5076042;28;45365;-79
2023/04/15 08:00:10;;;;;;;;;0.00;0.00;;;;;22.14;36.85;101107.88;5076338;28;45340;-79
2023/04/15 08:02:36;;;;;;;;;0.00;0.00;;;;;22.22;36.96;101121.09;5075991;28;45523;-79
2023/04/15 08:05:03;;;;;;;;;0.00;0.00;;;;;22.20;37.08;101122.25;5076031;28;45276;-79
2023/04/15 08:07:28;;;;;;;;;0.00;0.00;;;;;21.96;36.49;101083.28;5075805;28;45261;-79
2023/04/15 08:09:54;;;;;;;;;0.00;0.00;;;;;22.23;36.63;101132.50;5076238;28;45544;-79
2023/04/15 08:12:19;;;;;;;;;0.00;0.00;;;;;22.29;36.56;101145.06;5058124;28;45438;-80
2023/04/15 08:14:45;;;;;;;;;0.00;0.00;;;;;22.14;36.54;101135.22;5075917;28;45647;-80
2023/04/15 08:17:11;;;;;;;;;0.00;0.00;;;;;22.20;36.48;101140.81;5075738;28;45523;-79
2023/04/15 08:19:36;;;;;;;;;0.00;0.00;;;;;22.16;36.75;101138.50;5076149;28;45438;-79
2023/04/15 08:22:02;;;;;;;;;0.00;0.00;;;;;22.26;36.29;101156.84;5075980;28;45349;-79
2023/04/15 08:24:27;;;;;;;;;0.00;0.00;;;;;22.27;36.95;101162.97;5075705;28;45868;-79
2023/04/15 08:26:52;;;;;;;;;0.00;0.00;;;;;22.29;37.08;101175.06;5075782;28;45403;-78
2023/04/15 08:29:18;;;;;;;;;0.00;0.00;;;;;22.23;36.79;101169.59;5076097;28;45398;-79
2023/04/15 08:31:44;;;;;;;;;0.00;0.00;;;;;21.99;36.54;101127.16;5075448;28;45424;-79
2023/04/15 08:34:13;;;;;;;;;0.00;0.00;;;;;22.01;36.40;101141.06;5075450;28;46169;-78
2023/04/15 08:36:39;;;;;;;;;0.00;0.00;;;;;22.32;36.80;101191.59;5075698;28;45328;-78
2023/04/15 08:39:04;;;;;;;;;0.00;0.00;;;;;22.32;36.75;101199.56;5075498;28;45449;-80
2023/04/15 08:41:39;;;;;;;;;0.00;0.00;;;;;22.02;36.32;101150.66;5075764;28;45587;-78
2023/04/15 08:44:05;;;;;;;;;0.00;0.00;;;;;22.28;36.87;101197.25;5075430;28;47301;-79
2023/04/15 08:46:34;;;;;;;;;0.00;0.00;;;;;22.33;36.65;101199.38;5075073;28;45377;-78
2023/04/15 08:49:03;;;;;;;;;0.00;0.00;;;;;22.32;37.15;101203.03;5075671;28;45492;-79
2023/04/15 08:51:29;;;;;;;;;0.00;0.00;;;;;22.17;36.47;101195.78;5075636;28;45391;-78
2023/04/15 08:53:55;;;;;;;;;0.00;0.00;;;;;22.31;36.75;101225.22;5057412;28;47574;-79
2023/04/15 08:56:25;;;;;;;;;0.00;0.00;;;;;22.29;36.62;101233.38;5077997;28;45498;-79
2023/04/15 08:58:51;;;;;;;;;0.00;0.00;;;;;22.23;36.64;101219.97;5079231;28;45227;-79
2023/04/15 09:01:17;;;;;;;;;1.00;1.00;;;;;21.35;36.63;101089.97;5078780;28;45222;-78
2023/04/15 09:03:43;;;;;;;;;0.00;0.00;;;;;22.22;36.73;101234.22;5078871;28;46274;-79
2023/04/15 09:06:08;;;;;;;;;0.00;0.00;;;;;22.29;37.07;101257.22;5078874;28;45307;-78
2023/04/15 09:08:34;;;;;;;;;0.67;0.00;;;;;22.17;36.94;101237.41;5079178;28;45268;-80
2023/04/15 09:11:01;;;;;;;;;0.00;0.00;;;;;22.19;36.76;101232.75;5079003;28;45364;-79
2023/04/15 09:13:27;;;;;;;;;0.00;0.00;;;;;22.15;36.92;101239.38;5078635;28;46587;-78
2023/04/15 09:15:52;;;;;;;;;0.00;0.00;;;;;22.29;37.08;101262.53;5078476;27;45487;-78
2023/04/15 09:18:29;;;;;;;;;0.00;0.00;;;;;22.29;37.00;101265.19;5078896;28;45382;-79
2023/04/15 09:20:55;;;;;;;;;2.67;0.00;;;;;22.27;37.04;101269.81;5077633;28;45441;-79
2023/04/15 09:23:22;;;;;;;;;0.00;0.00;;;;;22.30;36.60;101276.59;5078506;28;46825;-79
2023/04/15 09:25:48;;;;;;;;;0.00;0.00;;;;;22.27;36.38;101275.13;5079165;28;45357;-83
2023/04/15 09:28:13;;;;;;;;;0.00;0.00;;;;;22.26;36.81;101273.47;5079478;28;45391;-89
2023/04/15 09:30:44;;;;;;;;;1.00;0.00;;;;;22.13;37.32;101258.09;5078556;28;45542;-83
2023/04/15 09:33:13;;;;;;;;;0.67;0.00;;;;;22.18;36.99;101278.78;5078030;28;46750;-87
2023/04/15 09:35:39;;;;;;;;;0.00;0.00;;;;;22.13;37.17;101276.66;5079062;28;46146;-82
2023/04/15 09:38:07;;;;;;;;;0.00;0.00;;;;;22.32;36.57;101308.22;5078832;28;45437;-82
2023/04/15 09:40:37;;;;;;;;;1.67;0.00;;;;;22.33;36.78;101310.69;5078620;28;45436;-77
2023/04/15 09:43:04;;;;;;;;;0.00;0.00;;;;;22.34;36.89;101311.53;5077636;28;46149;-80
2023/04/15 09:45:30;;;;;;;;;0.00;0.00;;;;;22.26;37.01;101305.28;5077331;28;45491;-81
2023/04/15 09:47:58;;;;;;;;;0.00;0.00;;;;;22.31;37.04;101304.75;5077749;28;45379;-77
2023/04/15 09:50:27;;;;;;;;;0.00;0.00;;;;;22.35;36.54;101323.81;5078297;28;46408;-75
2023/04/15 09:52:52;;;;;;;;;1.00;0.00;;;;;22.17;36.60;101319.56;5077995;28;46418;-75
2023/04/15 09:55:18;;;;;;;;;0.00;0.00;;;;;22.09;37.11;101338.94;5078045;28;45372;-73
2023/04/15 09:57:45;;;;;;;;;1.00;0.00;;;;;21.81;37.27;101313.59;5078341;28;45480;-75
2023/04/15 10:00:11;;;;;;;;;0.00;0.00;;;;;21.68;37.12;101306.16;5077760;28;45538;-75
2023/04/15 10:02:39;;;;;;;;;0.00;0.00;;;;;21.89;37.14;101351.69;5078053;28;47797;-78
2023/04/15 10:05:06;;;;;;;;;0.67;0.00;;;;;21.72;37.26;101314.63;5077929;28;45310;-80
2023/04/15 10:07:32;;;;;;;;;0.33;0.00;;;;;21.89;37.41;101341.09;5076628;28;45368;-78
2023/04/15 10:09:59;;;;;;;;;1.67;0.00;;;;;21.70;37.58;101322.72;5059941;28;45393;-79
2023/04/15 10:12:25;;;;;;;;;0.00;0.00;;;;;21.72;37.59;101320.75;5059026;28;47264;-78
2023/04/15 10:15:03;;;;;;;;;2.00;1.00;;;;;21.91;37.51;101344.44;5077176;28;45413;-78
2023/04/15 10:17:35;;;;;;;;;0.00;0.00;;;;;21.88;37.87;101342.94;5077863;28;45294;-78
2023/04/15 10:20:03;;;;;;;;;0.00;0.00;;;;;22.15;37.11;101378.00;5077988;28;45356;-78
2023/04/15 10:22:30;;;;;;;;;0.00;0.00;;;;;21.97;37.72;101346.41;5077503;28;47490;-78
2023/04/15 10:24:56;;;;;;;;;1.00;1.00;;;;;22.15;37.61;101369.22;5077497;28;45440;-78
2023/04/15 10:27:23;;;;;;;;;0.67;0.00;;;;;22.15;37.39;101366.56;5077743;28;45296;-79
2023/04/15 10:29:50;;;;;;;;;0.00;0.00;;;;;22.23;37.57;101369.22;5077816;28;45425;-79
2023/04/15 10:32:19;;;;;;;;;0.00;0.00;;;;;22.40;37.33;101396.50;5077419;28;46135;-79
2023/04/15 10:34:47;;;;;;;;;0.00;0.00;;;;;22.43;37.11;101403.28;5077231;28;45493;-78
2023/04/15 10:37:19;;;;;;;;;0.00;0.00;;;;;22.42;37.22;101412.25;5077542;28;45254;-79
2023/04/15 10:39:45;;;;;;;;;0.00;0.00;;;;;22.46;37.28;101408.25;5077473;28;45438;-79
2023/04/15 10:42:15;;;;;;;;;0.00;0.00;;;;;22.47;36.68;101420.53;5076873;28;45900;-78
2023/04/15 10:44:43;;;;;;;;;0.67;0.00;;;;;22.16;36.92;101374.38;5077138;28;45420;-79
2023/04/15 10:47:14;;;;;;;;;0.00;0.00;;;;;22.48;37.27;101429.31;5077157;28;45464;-80
2023/04/15 10:50:05;;;;;;;;;0.00;0.00;;;;;22.21;36.96;101391.59;5058845;28;45550;-79
2023/04/15 10:52:30;;;;;;;;;0.00;0.00;;;;;22.50;37.15;101437.94;5077167;28;46814;-78
2023/04/15 10:55:22;;;;;;;;;0.00;0.00;;;;;22.52;36.84;101441.25;5077041;28;45442;-79
2023/04/15 10:57:52;;;;;;;;;0.00;0.00;;;;;22.54;36.70;101444.53;5073253;28;45422;-78
2023/04/15 11:00:19;;;;;;;;;0.00;0.00;;;;;22.56;36.51;101445.19;5077232;28;45412;-78
2023/04/15 11:02:47;;;;;;;;;0.00;0.00;;;;;22.60;36.56;101448.34;5076866;28;47255;-79
2023/04/15 11:05:15;;;;;;;;;2.00;0.00;;;;;22.43;36.98;101424.50;5076909;28;45482;-77
2023/04/15 11:07:50;;;;;;;;;0.00;0.00;;;;;22.62;36.82;101443.69;5076900;28;45404;-79
2023/04/15 11:10:24;;;;;;;;;0.00;0.00;;;;;22.63;36.45;101459.47;5077149;28;45462;-78
2023/04/15 11:12:51;;;;;;;;;0.00;0.00;;;;;22.66;36.80;101468.06;5076234;28;46633;-78
2023/04/15 11:15:32;;;;;;;;;1.00;1.00;;;;;22.51;36.46;101439.56;5077080;28;45420;-79
2023/04/15 11:18:07;;;;;;;;;0.00;0.00;;;;;22.56;36.43;101449.69;5076438;28;45388;-79
2023/04/15 11:20:33;;;;;;;;;3.33;0.00;;;;;22.65;36.28;101472.53;5076937;28;45342;-78